Date,TemperatureHighF,TemperatureAvgF,TemperatureLowF,DewpointHighF,DewpointAvgF,DewpointLowF,HumidityHigh,HumidityAvg,HumidityLow,PressureMaxIn,PressureMinIn,WindSpeedMaxMPH,WindSpeedAvgMPH,GustSpeedMaxMPH,PrecipitationSumIn
2013-9-1,90,79,72,80,74,70,91,84,68,29.99,29.88,2,0,2,0.45
2013-9-2,92,74,72,81,63,-100,92,80,63,30.00,29.89,5,-52,5,0.33
2013-9-3,91,73,73,81,59,-100,92,78,70,30.00,29.90,6,-166,6,0.02
2013-9-4,92,44,76,81,-8,-100,86,40,69,30.08,29.97,2,-479,2,0.00
2013-9-5,91,78,74,80,71,-100,91,83,71,30.10,30.00,4,-14,4,0.00
2013-9-6,89,78,73,78,71,-100,91,84,70,30.07,29.99,10,-7,10,0.00
2013-9-7,92,80,71,77,72,68,92,79,61,30.05,29.96,11,1,11,0.00
2013-9-8,91,80,71,74,71,67,88,74,55,30.00,29.92,12,1,12,0.00
2013-9-9,90,78,69,75,69,-100,91,76,60,30.07,29.96,10,-7,10,0.00
2013-9-10,90,82,75,76,71,-100,84,73,5,30.15,30.03,10,1,10,0.00
2013-9-11,90,80,74,79,74,69,89,80,68,30.13,30.04,11,-3,11,0.14
2013-9-12,89,78,72,79,73,69,91,84,70,30.05,29.90,9,0,9,0.96
2013-9-13,91,79,71,77,72,68,91,80,57,29.92,29.78,6,0,6,0.00
2013-9-14,90,80,72,79,74,69,90,83,70,30.00,29.81,3,0,3,0.00
2013-9-15,94,80,72,80,75,70,92,83,64,30.10,29.98,6,0,6,0.02
2013-9-16,94,81,73,79,75,70,91,81,61,30.10,30.01,9,0,9,0.00
2013-9-17,88,80,73,78,74,70,92,82,69,30.12,30.00,12,1,12,0.06
2013-9-18,83,76,73,76,72,70,92,86,74,30.10,30.02,16,2,16,2.12
2013-9-19,86,78,74,76,72,68,90,80,68,30.10,30.01,9,0,9,0.14
2013-9-20,86,77,70,75,70,66,91,79,66,30.06,29.93,9,1,9,0.00
2013-9-21,86,76,68,75,70,65,91,83,70,29.95,29.76,2,0,2,0.00
2013-9-22,81,75,72,76,72,69,91,88,82,29.84,29.74,5,0,5,0.45
2013-9-23,82,75,71,77,72,69,92,90,83,29.97,29.83,5,0,5,0.04
2013-9-24,82,75,72,77,72,70,92,90,82,29.95,29.81,7,0,7,0.39
2013-9-25,84,77,73,76,73,70,92,88,77,29.81,29.74,10,1,10,0.00
2013-9-26,78,74,70,74,70,67,92,88,80,29.90,29.73,12,1,12,0.02
2013-9-27,80,75,70,74,70,66,90,83,77,30.00,29.87,17,4,17,0.00
2013-9-28,79,75,72,71,69,67,91,83,73,30.07,29.96,13,4,13,0.84
2013-9-29,80,76,71,72,70,68,90,82,73,30.02,29.95,17,3,17,0.37
2013-9-30,82,76,73,70,67,64,85,76,62,30.05,29.93,14,2,14,0.00